sensor_id;sensor_type;location;lat;lon;timestamp;P1;durP1;ratioP1;P2;durP2;ratioP2
74074;SDS011;62428;51.412;5.432;2023-04-24T00:00:18;14.27;;;6.10;;
74074;SDS011;62428;51.412;5.432;2023-04-24T00:02:43;14.20;;;5.97;;
74074;SDS011;62428;51.412;5.432;2023-04-24T00:05:16;16.60;;;6.38;;
74074;SDS011;62428;51.412;5.432;2023-04-24T00:07:42;12.07;;;5.80;;
74074;SDS011;62428;51.412;5.432;2023-04-24T00:10:08;10.32;;;5.88;;
74074;SDS011;62428;51.412;5.432;2023-04-24T00:12:34;11.90;;;6.63;;
74074;SDS011;62428;51.412;5.432;2023-04-24T00:15:00;15.00;;;6.93;;
74074;SDS011;62428;51.412;5.432;2023-04-24T00:17:26;12.85;;;6.15;;
74074;SDS011;62428;51.412;5.432;2023-04-24T00:19:51;13.57;;;6.00;;
74074;SDS011;62428;51.412;5.432;2023-04-24T00:22:23;14.32;;;7.03;;
74074;SDS011;62428;51.412;5.432;2023-04-24T00:24:49;12.38;;;6.88;;
74074;SDS011;62428;51.412;5.432;2023-04-24T00:27:14;10.80;;;6.17;;
74074;SDS011;62428;51.412;5.432;2023-04-24T00:29:39;11.97;;;6.70;;
74074;SDS011;62428;51.412;5.432;2023-04-24T00:32:04;12.70;;;6.97;;
74074;SDS011;62428;51.412;5.432;2023-04-24T00:34:30;17.07;;;6.87;;
74074;SDS011;62428;51.412;5.432;2023-04-24T00:36:57;13.77;;;6.38;;
74074;SDS011;62428;51.412;5.432;2023-04-24T00:39:22;15.70;;;6.00;;
74074;SDS011;62428;51.412;5.432;2023-04-24T00:41:48;8.37;;;5.57;;
74074;SDS011;62428;51.412;5.432;2023-04-24T00:44:14;18.27;;;6.90;;
74074;SDS011;62428;51.412;5.432;2023-04-24T00:46:40;15.35;;;7.00;;
74074;SDS011;62428;51.412;5.432;2023-04-24T00:49:06;14.47;;;6.67;;
74074;SDS011;62428;51.412;5.432;2023-04-24T00:51:31;15.90;;;7.32;;
74074;SDS011;62428;51.412;5.432;2023-04-24T00:53:57;18.90;;;6.30;;
74074;SDS011;62428;51.412;5.432;2023-04-24T00:56:23;17.80;;;7.35;;
74074;SDS011;62428;51.412;5.432;2023-04-24T00:58:49;14.57;;;7.00;;
74074;SDS011;62428;51.412;5.432;2023-04-24T01:01:14;16.98;;;7.63;;
74074;SDS011;62428;51.412;5.432;2023-04-24T01:03:40;18.83;;;8.10;;
74074;SDS011;62428;51.412;5.432;2023-04-24T01:06:06;19.40;;;7.55;;
74074;SDS011;62428;51.412;5.432;2023-04-24T01:08:31;19.00;;;8.27;;
74074;SDS011;62428;51.412;5.432;2023-04-24T01:10:59;15.73;;;8.30;;
74074;SDS011;62428;51.412;5.432;2023-04-24T01:13:28;18.23;;;8.73;;
74074;SDS011;62428;51.412;5.432;2023-04-24T01:15:53;21.60;;;9.00;;
74074;SDS011;62428;51.412;5.432;2023-04-24T01:18:22;19.63;;;8.30;;
74074;SDS011;62428;51.412;5.432;2023-04-24T01:20:47;17.92;;;8.27;;
74074;SDS011;62428;51.412;5.432;2023-04-24T01:23:15;20.75;;;9.23;;
74074;SDS011;62428;51.412;5.432;2023-04-24T01:25:41;20.08;;;8.93;;
74074;SDS011;62428;51.412;5.432;2023-04-24T01:28:07;19.90;;;8.87;;
74074;SDS011;62428;51.412;5.432;2023-04-24T01:30:33;18.65;;;9.55;;
74074;SDS011;62428;51.412;5.432;2023-04-24T01:32:58;24.00;;;9.97;;
74074;SDS011;62428;51.412;5.432;2023-04-24T01:35:24;16.33;;;9.23;;
74074;SDS011;62428;51.412;5.432;2023-04-24T01:37:49;23.92;;;9.63;;
74074;SDS011;62428;51.412;5.432;2023-04-24T01:40:15;21.30;;;9.93;;
74074;SDS011;62428;51.412;5.432;2023-04-24T01:42:41;17.77;;;9.67;;
74074;SDS011;62428;51.412;5.432;2023-04-24T01:45:07;19.33;;;9.48;;
74074;SDS011;62428;51.412;5.432;2023-04-24T01:47:35;19.83;;;10.95;;
74074;SDS011;62428;51.412;5.432;2023-04-24T01:50:01;25.70;;;10.13;;
74074;SDS011;62428;51.412;5.432;2023-04-24T01:52:27;23.70;;;11.00;;
74074;SDS011;62428;51.412;5.432;2023-04-24T01:54:53;20.38;;;11.20;;
74074;SDS011;62428;51.412;5.432;2023-04-24T01:57:20;25.13;;;10.07;;
74074;SDS011;62428;51.412;5.432;2023-04-24T01:59:46;20.75;;;10.13;;
74074;SDS011;62428;51.412;5.432;2023-04-24T02:02:11;20.30;;;10.50;;
74074;SDS011;62428;51.412;5.432;2023-04-24T02:04:36;22.47;;;10.60;;
74074;SDS011;62428;51.412;5.432;2023-04-24T02:07:02;21.23;;;10.13;;
74074;SDS011;62428;51.412;5.432;2023-04-24T02:09:27;31.63;;;11.10;;
74074;SDS011;62428;51.412;5.432;2023-04-24T02:11:52;21.50;;;9.97;;
74074;SDS011;62428;51.412;5.432;2023-04-24T02:14:18;19.45;;;9.88;;
74074;SDS011;62428;51.412;5.432;2023-04-24T02:16:43;19.13;;;9.77;;
74074;SDS011;62428;51.412;5.432;2023-04-24T02:19:08;21.73;;;10.30;;
74074;SDS011;62428;51.412;5.432;2023-04-24T02:21:34;19.27;;;10.60;;
74074;SDS011;62428;51.412;5.432;2023-04-24T02:24:00;18.70;;;9.27;;
74074;SDS011;62428;51.412;5.432;2023-04-24T02:26:25;22.35;;;10.07;;
74074;SDS011;62428;51.412;5.432;2023-04-24T02:28:51;22.52;;;10.07;;
74074;SDS011;62428;51.412;5.432;2023-04-24T02:31:16;25.73;;;10.63;;
74074;SDS011;62428;51.412;5.432;2023-04-24T02:33:41;20.13;;;9.60;;
74074;SDS011;62428;51.412;5.432;2023-04-24T02:36:07;20.95;;;9.77;;
74074;SDS011;62428;51.412;5.432;2023-04-24T02:38:32;23.05;;;10.48;;
74074;SDS011;62428;51.412;5.432;2023-04-24T02:40:57;19.27;;;9.27;;
74074;SDS011;62428;51.412;5.432;2023-04-24T02:43:23;18.83;;;9.63;;
74074;SDS011;62428;51.412;5.432;2023-04-24T02:45:48;19.57;;;9.23;;
74074;SDS011;62428;51.412;5.432;2023-04-24T02:48:14;20.07;;;9.40;;
74074;SDS011;62428;51.412;5.432;2023-04-24T02:50:39;21.77;;;9.88;;
74074;SDS011;62428;51.412;5.432;2023-04-24T02:53:04;22.63;;;9.83;;
74074;SDS011;62428;51.412;5.432;2023-04-24T02:55:30;17.57;;;9.60;;
74074;SDS011;62428;51.412;5.432;2023-04-24T02:57:55;19.47;;;9.23;;
74074;SDS011;62428;51.412;5.432;2023-04-24T03:00:21;18.13;;;8.83;;
74074;SDS011;62428;51.412;5.432;2023-04-24T03:02:46;18.33;;;9.18;;
74074;SDS011;62428;51.412;5.432;2023-04-24T03:05:11;23.92;;;8.35;;
74074;SDS011;62428;51.412;5.432;2023-04-24T03:07:37;15.90;;;8.50;;
74074;SDS011;62428;51.412;5.432;2023-04-24T03:10:03;15.43;;;8.37;;
74074;SDS011;62428;51.412;5.432;2023-04-24T03:12:30;16.90;;;8.13;;
74074;SDS011;62428;51.412;5.432;2023-04-24T03:14:56;16.30;;;7.40;;
74074;SDS011;62428;51.412;5.432;2023-04-24T03:17:21;14.37;;;7.67;;
74074;SDS011;62428;51.412;5.432;2023-04-24T03:19:46;13.00;;;6.90;;
74074;SDS011;62428;51.412;5.432;2023-04-24T03:22:12;17.88;;;8.32;;
74074;SDS011;62428;51.412;5.432;2023-04-24T03:24:37;18.13;;;7.00;;
74074;SDS011;62428;51.412;5.432;2023-04-24T03:27:02;15.33;;;7.33;;
74074;SDS011;62428;51.412;5.432;2023-04-24T03:29:28;15.40;;;7.33;;
74074;SDS011;62428;51.412;5.432;2023-04-24T03:31:53;16.63;;;7.47;;
74074;SDS011;62428;51.412;5.432;2023-04-24T03:34:18;19.97;;;7.87;;
74074;SDS011;62428;51.412;5.432;2023-04-24T03:36:44;13.57;;;6.65;;
74074;SDS011;62428;51.412;5.432;2023-04-24T03:39:12;15.65;;;7.72;;
74074;SDS011;62428;51.412;5.432;2023-04-24T03:41:37;13.23;;;6.83;;
74074;SDS011;62428;51.412;5.432;2023-04-24T03:44:03;15.63;;;7.50;;
74074;SDS011;62428;51.412;5.432;2023-04-24T03:46:28;10.90;;;6.47;;
74074;SDS011;62428;51.412;5.432;2023-04-24T03:48:53;14.07;;;6.83;;
74074;SDS011;62428;51.412;5.432;2023-04-24T03:51:18;17.60;;;7.03;;
74074;SDS011;62428;51.412;5.432;2023-04-24T03:53:44;14.33;;;7.07;;
74074;SDS011;62428;51.412;5.432;2023-04-24T03:56:09;13.43;;;7.33;;
74074;SDS011;62428;51.412;5.432;2023-04-24T03:58:35;16.00;;;7.90;;
74074;SDS011;62428;51.412;5.432;2023-04-24T04:01:00;12.20;;;6.47;;
74074;SDS011;62428;51.412;5.432;2023-04-24T04:03:25;13.20;;;6.90;;
74074;SDS011;62428;51.412;5.432;2023-04-24T04:05:50;16.60;;;7.27;;
74074;SDS011;62428;51.412;5.432;2023-04-24T04:08:16;12.67;;;6.00;;
74074;SDS011;62428;51.412;5.432;2023-04-24T04:10:41;13.73;;;6.53;;
74074;SDS011;62428;51.412;5.432;2023-04-24T04:13:07;9.68;;;5.85;;
74074;SDS011;62428;51.412;5.432;2023-04-24T04:15:32;11.77;;;5.93;;
74074;SDS011;62428;51.412;5.432;2023-04-24T04:17:57;14.13;;;6.13;;
74074;SDS011;62428;51.412;5.432;2023-04-24T04:20:23;10.90;;;5.63;;
74074;SDS011;62428;51.412;5.432;2023-04-24T04:22:48;12.57;;;6.27;;
74074;SDS011;62428;51.412;5.432;2023-04-24T04:25:13;9.97;;;4.90;;
74074;SDS011;62428;51.412;5.432;2023-04-24T04:27:39;9.93;;;5.73;;
74074;SDS011;62428;51.412;5.432;2023-04-24T04:30:06;10.00;;;5.05;;
74074;SDS011;62428;51.412;5.432;2023-04-24T04:32:33;10.68;;;5.60;;
74074;SDS011;62428;51.412;5.432;2023-04-24T04:34:59;11.13;;;5.57;;
74074;SDS011;62428;51.412;5.432;2023-04-24T04:37:32;14.98;;;5.55;;
74074;SDS011;62428;51.412;5.432;2023-04-24T04:40:01;7.53;;;4.82;;
74074;SDS011;62428;51.412;5.432;2023-04-24T04:42:37;10.15;;;5.47;;
74074;SDS011;62428;51.412;5.432;2023-04-24T04:45:05;7.00;;;4.63;;
74074;SDS011;62428;51.412;5.432;2023-04-24T04:47:34;9.55;;;4.63;;
74074;SDS011;62428;51.412;5.432;2023-04-24T04:49:59;8.80;;;5.53;;
74074;SDS011;62428;51.412;5.432;2023-04-24T04:52:25;9.63;;;4.90;;
74074;SDS011;62428;51.412;5.432;2023-04-24T04:54:51;9.93;;;5.15;;
74074;SDS011;62428;51.412;5.432;2023-04-24T04:57:17;10.73;;;5.17;;
74074;SDS011;62428;51.412;5.432;2023-04-24T04:59:42;9.40;;;4.55;;
74074;SDS011;62428;51.412;5.432;2023-04-24T05:02:07;7.60;;;4.85;;
74074;SDS011;62428;51.412;5.432;2023-04-24T05:04:33;7.00;;;4.50;;
74074;SDS011;62428;51.412;5.432;2023-04-24T05:06:58;9.17;;;5.07;;
74074;SDS011;62428;51.412;5.432;2023-04-24T05:09:24;8.88;;;4.82;;
74074;SDS011;62428;51.412;5.432;2023-04-24T05:11:52;6.30;;;4.07;;
74074;SDS011;62428;51.412;5.432;2023-04-24T05:14:17;6.93;;;3.47;;
74074;SDS011;62428;51.412;5.432;2023-04-24T05:16:43;5.03;;;2.90;;
74074;SDS011;62428;51.412;5.432;2023-04-24T05:19:09;4.60;;;2.80;;
74074;SDS011;62428;51.412;5.432;2023-04-24T05:21:36;5.70;;;2.33;;
74074;SDS011;62428;51.412;5.432;2023-04-24T05:24:02;4.17;;;1.50;;
74074;SDS011;62428;51.412;5.432;2023-04-24T05:26:27;2.80;;;1.33;;
74074;SDS011;62428;51.412;5.432;2023-04-24T05:28:53;3.83;;;1.60;;
74074;SDS011;62428;51.412;5.432;2023-04-24T05:31:18;6.60;;;1.50;;
74074;SDS011;62428;51.412;5.432;2023-04-24T05:33:43;4.40;;;1.20;;
74074;SDS011;62428;51.412;5.432;2023-04-24T05:36:08;4.43;;;0.93;;
74074;SDS011;62428;51.412;5.432;2023-04-24T05:38:34;4.23;;;1.07;;
74074;SDS011;62428;51.412;5.432;2023-04-24T05:40:59;4.73;;;0.90;;
74074;SDS011;62428;51.412;5.432;2023-04-24T05:43:25;4.37;;;0.87;;
74074;SDS011;62428;51.412;5.432;2023-04-24T05:45:50;3.70;;;1.07;;
74074;SDS011;62428;51.412;5.432;2023-04-24T05:48:15;4.50;;;1.10;;
74074;SDS011;62428;51.412;5.432;2023-04-24T05:50:41;3.25;;;0.85;;
74074;SDS011;62428;51.412;5.432;2023-04-24T05:53:06;3.27;;;0.83;;
74074;SDS011;62428;51.412;5.432;2023-04-24T05:55:32;3.10;;;0.87;;
74074;SDS011;62428;51.412;5.432;2023-04-24T05:57:57;3.87;;;1.00;;
74074;SDS011;62428;51.412;5.432;2023-04-24T06:00:23;6.35;;;1.00;;
74074;SDS011;62428;51.412;5.432;2023-04-24T06:02:49;3.35;;;1.00;;
74074;SDS011;62428;51.412;5.432;2023-04-24T06:05:14;2.40;;;1.00;;
74074;SDS011;62428;51.412;5.432;2023-04-24T06:07:40;4.63;;;1.17;;
74074;SDS011;62428;51.412;5.432;2023-04-24T06:10:05;3.40;;;1.00;;
74074;SDS011;62428;51.412;5.432;2023-04-24T06:12:31;5.57;;;1.50;;
74074;SDS011;62428;51.412;5.432;2023-04-24T06:14:56;6.20;;;1.40;;
74074;SDS011;62428;51.412;5.432;2023-04-24T06:17:22;6.00;;;1.70;;
74074;SDS011;62428;51.412;5.432;2023-04-24T06:19:47;3.87;;;1.73;;
74074;SDS011;62428;51.412;5.432;2023-04-24T06:22:12;4.67;;;1.90;;
74074;SDS011;62428;51.412;5.432;2023-04-24T06:24:39;4.80;;;2.40;;
74074;SDS011;62428;51.412;5.432;2023-04-24T06:27:05;6.40;;;2.27;;
74074;SDS011;62428;51.412;5.432;2023-04-24T06:29:30;6.82;;;3.13;;
74074;SDS011;62428;51.412;5.432;2023-04-24T06:31:56;6.07;;;3.40;;
74074;SDS011;62428;51.412;5.432;2023-04-24T06:34:21;4.97;;;3.07;;
74074;SDS011;62428;51.412;5.432;2023-04-24T06:36:46;8.67;;;3.77;;
74074;SDS011;62428;51.412;5.432;2023-04-24T06:39:12;8.50;;;4.03;;
74074;SDS011;62428;51.412;5.432;2023-04-24T06:41:37;9.05;;;4.72;;
74074;SDS011;62428;51.412;5.432;2023-04-24T06:44:03;9.03;;;4.73;;
74074;SDS011;62428;51.412;5.432;2023-04-24T06:46:28;10.13;;;5.17;;
74074;SDS011;62428;51.412;5.432;2023-04-24T06:48:53;9.57;;;4.80;;
74074;SDS011;62428;51.412;5.432;2023-04-24T06:51:25;13.98;;;5.90;;
74074;SDS011;62428;51.412;5.432;2023-04-24T06:53:51;10.68;;;5.72;;
74074;SDS011;62428;51.412;5.432;2023-04-24T06:56:16;16.53;;;7.03;;
74074;SDS011;62428;51.412;5.432;2023-04-24T06:58:42;14.03;;;6.30;;
74074;SDS011;62428;51.412;5.432;2023-04-24T07:01:07;12.43;;;6.10;;
74074;SDS011;62428;51.412;5.432;2023-04-24T07:03:33;16.57;;;6.83;;
74074;SDS011;62428;51.412;5.432;2023-04-24T07:05:58;17.60;;;6.47;;
74074;SDS011;62428;51.412;5.432;2023-04-24T07:08:23;15.30;;;6.20;;
74074;SDS011;62428;51.412;5.432;2023-04-24T07:10:50;15.00;;;7.65;;
74074;SDS011;62428;51.412;5.432;2023-04-24T07:13:16;15.83;;;7.27;;
74074;SDS011;62428;51.412;5.432;2023-04-24T07:15:42;14.18;;;7.53;;
74074;SDS011;62428;51.412;5.432;2023-04-24T07:18:07;21.10;;;7.45;;
74074;SDS011;62428;51.412;5.432;2023-04-24T07:20:32;14.82;;;7.13;;
74074;SDS011;62428;51.412;5.432;2023-04-24T07:22:58;15.77;;;7.67;;
74074;SDS011;62428;51.412;5.432;2023-04-24T07:25:24;13.98;;;7.03;;
74074;SDS011;62428;51.412;5.432;2023-04-24T07:27:49;15.83;;;6.83;;
74074;SDS011;62428;51.412;5.432;2023-04-24T07:30:15;13.77;;;7.00;;
74074;SDS011;62428;51.412;5.432;2023-04-24T07:32:40;15.23;;;6.67;;
74074;SDS011;62428;51.412;5.432;2023-04-24T07:35:05;12.50;;;4.57;;
74074;SDS011;62428;51.412;5.432;2023-04-24T07:37:31;9.23;;;5.05;;
74074;SDS011;62428;51.412;5.432;2023-04-24T07:39:57;13.87;;;5.30;;
74074;SDS011;62428;51.412;5.432;2023-04-24T07:42:22;10.63;;;4.50;;
74074;SDS011;62428;51.412;5.432;2023-04-24T07:44:47;11.30;;;4.67;;
74074;SDS011;62428;51.412;5.432;2023-04-24T07:47:13;14.27;;;4.40;;
74074;SDS011;62428;51.412;5.432;2023-04-24T07:49:41;14.98;;;4.78;;
74074;SDS011;62428;51.412;5.432;2023-04-24T07:52:07;9.90;;;4.18;;
74074;SDS011;62428;51.412;5.432;2023-04-24T07:54:32;12.00;;;3.73;;
74074;SDS011;62428;51.412;5.432;2023-04-24T07:56:58;14.07;;;4.10;;
74074;SDS011;62428;51.412;5.432;2023-04-24T07:59:23;14.88;;;4.32;;
74074;SDS011;62428;51.412;5.432;2023-04-24T08:01:48;17.48;;;4.43;;
74074;SDS011;62428;51.412;5.432;2023-04-24T08:04:14;19.07;;;4.77;;
74074;SDS011;62428;51.412;5.432;2023-04-24T08:06:39;13.47;;;4.60;;
74074;SDS011;62428;51.412;5.432;2023-04-24T08:09:05;16.90;;;4.73;;
74074;SDS011;62428;51.412;5.432;2023-04-24T08:11:30;13.30;;;5.43;;
74074;SDS011;62428;51.412;5.432;2023-04-24T08:13:55;15.03;;;5.13;;
74074;SDS011;62428;51.412;5.432;2023-04-24T08:16:21;15.57;;;5.20;;
74074;SDS011;62428;51.412;5.432;2023-04-24T08:18:46;16.63;;;6.13;;
74074;SDS011;62428;51.412;5.432;2023-04-24T08:21:12;17.67;;;5.03;;
74074;SDS011;62428;51.412;5.432;2023-04-24T08:23:42;17.42;;;5.30;;
74074;SDS011;62428;51.412;5.432;2023-04-24T08:26:07;14.43;;;4.33;;
74074;SDS011;62428;51.412;5.432;2023-04-24T08:28:32;16.67;;;5.25;;
74074;SDS011;62428;51.412;5.432;2023-04-24T08:30:58;20.77;;;5.07;;
74074;SDS011;62428;51.412;5.432;2023-04-24T08:33:23;16.63;;;4.03;;
74074;SDS011;62428;51.412;5.432;2023-04-24T08:35:49;10.77;;;4.53;;
74074;SDS011;62428;51.412;5.432;2023-04-24T08:38:16;13.00;;;3.88;;
74074;SDS011;62428;51.412;5.432;2023-04-24T08:40:41;15.40;;;4.03;;
74074;SDS011;62428;51.412;5.432;2023-04-24T08:43:08;14.60;;;3.63;;
74074;SDS011;62428;51.412;5.432;2023-04-24T08:45:33;14.40;;;3.60;;
74074;SDS011;62428;51.412;5.432;2023-04-24T08:48:00;15.43;;;3.75;;
74074;SDS011;62428;51.412;5.432;2023-04-24T08:50:25;17.80;;;3.77;;
74074;SDS011;62428;51.412;5.432;2023-04-24T08:52:51;19.00;;;3.67;;
74074;SDS011;62428;51.412;5.432;2023-04-24T08:55:18;15.85;;;4.40;;
74074;SDS011;62428;51.412;5.432;2023-04-24T08:57:45;12.85;;;3.33;;
74074;SDS011;62428;51.412;5.432;2023-04-24T09:00:15;13.82;;;2.83;;
74074;SDS011;62428;51.412;5.432;2023-04-24T09:02:43;11.98;;;2.83;;
74074;SDS011;62428;51.412;5.432;2023-04-24T09:05:12;18.17;;;3.10;;
74074;SDS011;62428;51.412;5.432;2023-04-24T09:07:39;9.27;;;2.15;;
74074;SDS011;62428;51.412;5.432;2023-04-24T09:10:06;11.10;;;2.15;;
74074;SDS011;62428;51.412;5.432;2023-04-24T09:12:33;7.00;;;1.70;;
74074;SDS011;62428;51.412;5.432;2023-04-24T09:15:00;13.80;;;2.10;;
74074;SDS011;62428;51.412;5.432;2023-04-24T09:17:28;10.10;;;1.58;;
74074;SDS011;62428;51.412;5.432;2023-04-24T09:19:55;13.27;;;2.35;;
74074;SDS011;62428;51.412;5.432;2023-04-24T09:22:20;8.30;;;1.83;;
74074;SDS011;62428;51.412;5.432;2023-04-24T09:24:46;11.75;;;2.65;;
74074;SDS011;62428;51.412;5.432;2023-04-24T09:27:12;8.75;;;1.88;;
74074;SDS011;62428;51.412;5.432;2023-04-24T09:29:38;10.23;;;2.07;;
74074;SDS011;62428;51.412;5.432;2023-04-24T09:32:19;7.05;;;1.80;;
74074;SDS011;62428;51.412;5.432;2023-04-24T09:34:47;18.23;;;2.95;;
74074;SDS011;62428;51.412;5.432;2023-04-24T09:37:25;11.93;;;1.88;;
74074;SDS011;62428;51.412;5.432;2023-04-24T09:42:38;14.18;;;1.92;;
74074;SDS011;62428;51.412;5.432;2023-04-24T09:45:04;8.23;;;1.97;;
74074;SDS011;62428;51.412;5.432;2023-04-24T09:47:37;9.88;;;2.05;;
74074;SDS011;62428;51.412;5.432;2023-04-24T09:50:10;11.68;;;1.85;;
74074;SDS011;62428;51.412;5.432;2023-04-24T09:52:43;10.00;;;2.45;;
74074;SDS011;62428;51.412;5.432;2023-04-24T09:55:10;12.50;;;2.10;;
74074;SDS011;62428;51.412;5.432;2023-04-24T09:57:46;12.27;;;2.20;;
74074;SDS011;62428;51.412;5.432;2023-04-24T10:00:13;9.25;;;1.92;;
74074;SDS011;62428;51.412;5.432;2023-04-24T10:02:42;16.10;;;2.08;;
74074;SDS011;62428;51.412;5.432;2023-04-24T10:05:09;9.20;;;1.65;;
74074;SDS011;62428;51.412;5.432;2023-04-24T10:07:37;10.18;;;1.42;;
74074;SDS011;62428;51.412;5.432;2023-04-24T10:10:03;9.47;;;1.47;;
74074;SDS011;62428;51.412;5.432;2023-04-24T10:12:28;8.10;;;1.70;;
74074;SDS011;62428;51.412;5.432;2023-04-24T10:14:54;8.38;;;1.20;;
74074;SDS011;62428;51.412;5.432;2023-04-24T10:17:20;6.75;;;1.10;;
74074;SDS011;62428;51.412;5.432;2023-04-24T10:19:48;7.00;;;1.42;;
74074;SDS011;62428;51.412;5.432;2023-04-24T10:22:14;11.77;;;1.17;;
74074;SDS011;62428;51.412;5.432;2023-04-24T10:24:41;6.57;;;1.15;;
74074;SDS011;62428;51.412;5.432;2023-04-24T10:27:08;9.27;;;1.00;;
74074;SDS011;62428;51.412;5.432;2023-04-24T10:29:34;8.52;;;1.38;;
74074;SDS011;62428;51.412;5.432;2023-04-24T10:32:01;6.85;;;1.17;;
74074;SDS011;62428;51.412;5.432;2023-04-24T10:34:26;6.93;;;1.10;;
74074;SDS011;62428;51.412;5.432;2023-04-24T10:36:52;8.95;;;1.00;;
74074;SDS011;62428;51.412;5.432;2023-04-24T10:39:20;8.48;;;1.20;;
74074;SDS011;62428;51.412;5.432;2023-04-24T10:41:48;6.32;;;1.45;;
74074;SDS011;62428;51.412;5.432;2023-04-24T10:44:14;3.15;;;0.50;;
74074;SDS011;62428;51.412;5.432;2023-04-24T10:46:44;5.88;;;1.00;;
74074;SDS011;62428;51.412;5.432;2023-04-24T10:49:11;10.63;;;2.92;;
74074;SDS011;62428;51.412;5.432;2023-04-24T10:51:43;28.23;;;3.70;;
74074;SDS011;62428;51.412;5.432;2023-04-24T10:54:24;15.32;;;1.90;;
74074;SDS011;62428;51.412;5.432;2023-04-24T11:00:10;6.83;;;0.80;;
74074;SDS011;62428;51.412;5.432;2023-04-24T11:02:45;6.68;;;0.95;;
74074;SDS011;62428;51.412;5.432;2023-04-24T11:05:17;3.95;;;0.63;;
74074;SDS011;62428;51.412;5.432;2023-04-24T11:10:43;4.25;;;0.90;;
74074;SDS011;62428;51.412;5.432;2023-04-24T11:13:10;4.93;;;0.50;;
74074;SDS011;62428;51.412;5.432;2023-04-24T11:15:35;4.55;;;0.50;;
74074;SDS011;62428;51.412;5.432;2023-04-24T11:18:00;7.73;;;0.60;;
74074;SDS011;62428;51.412;5.432;2023-04-24T11:20:26;3.50;;;0.50;;
74074;SDS011;62428;51.412;5.432;2023-04-24T11:22:52;3.78;;;0.50;;
74074;SDS011;62428;51.412;5.432;2023-04-24T11:25:19;6.05;;;0.68;;
74074;SDS011;62428;51.412;5.432;2023-04-24T11:27:47;4.88;;;0.80;;
74074;SDS011;62428;51.412;5.432;2023-04-24T11:30:18;6.15;;;0.50;;
74074;SDS011;62428;51.412;5.432;2023-04-24T11:32:47;4.78;;;0.60;;
74074;SDS011;62428;51.412;5.432;2023-04-24T11:35:18;4.70;;;0.45;;
74074;SDS011;62428;51.412;5.432;2023-04-24T11:37:46;2.65;;;0.45;;
74074;SDS011;62428;51.412;5.432;2023-04-24T11:40:17;3.53;;;0.40;;
74074;SDS011;62428;51.412;5.432;2023-04-24T11:42:46;3.30;;;0.75;;
74074;SDS011;62428;51.412;5.432;2023-04-24T11:45:33;5.85;;;0.60;;
74074;SDS011;62428;51.412;5.432;2023-04-24T11:47:58;3.47;;;0.40;;
74074;SDS011;62428;51.412;5.432;2023-04-24T11:50:24;3.70;;;0.57;;
74074;SDS011;62428;51.412;5.432;2023-04-24T11:52:52;4.28;;;0.43;;
74074;SDS011;62428;51.412;5.432;2023-04-24T11:57:44;1.95;;;0.30;;
74074;SDS011;62428;51.412;5.432;2023-04-24T12:02:42;1.48;;;0.32;;
74074;SDS011;62428;51.412;5.432;2023-04-24T12:05:07;2.25;;;0.25;;
74074;SDS011;62428;51.412;5.432;2023-04-24T12:07:39;4.00;;;0.50;;
74074;SDS011;62428;51.412;5.432;2023-04-24T12:10:07;7.50;;;0.63;;
74074;SDS011;62428;51.412;5.432;2023-04-24T12:12:34;2.17;;;0.50;;
74074;SDS011;62428;51.412;5.432;2023-04-24T12:15:00;3.45;;;0.40;;
74074;SDS011;62428;51.412;5.432;2023-04-24T12:17:27;2.57;;;0.30;;
74074;SDS011;62428;51.412;5.432;2023-04-24T12:19:59;1.30;;;0.30;;
74074;SDS011;62428;51.412;5.432;2023-04-24T12:22:26;3.60;;;0.30;;
74074;SDS011;62428;51.412;5.432;2023-04-24T12:24:55;3.88;;;0.30;;
74074;SDS011;62428;51.412;5.432;2023-04-24T12:27:26;4.47;;;0.50;;
74074;SDS011;62428;51.412;5.432;2023-04-24T12:29:58;2.55;;;0.40;;
74074;SDS011;62428;51.412;5.432;2023-04-24T12:32:24;3.72;;;0.30;;
74074;SDS011;62428;51.412;5.432;2023-04-24T12:34:50;1.70;;;0.40;;
74074;SDS011;62428;51.412;5.432;2023-04-24T12:37:16;2.25;;;0.45;;
74074;SDS011;62428;51.412;5.432;2023-04-24T12:40:25;4.00;;;0.32;;
74074;SDS011;62428;51.412;5.432;2023-04-24T12:42:32;1.88;;;0.30;;
74074;SDS011;62428;51.412;5.432;2023-04-24T12:45:05;3.30;;;0.50;;
74074;SDS011;62428;51.412;5.432;2023-04-24T12:47:31;3.80;;;0.40;;
74074;SDS011;62428;51.412;5.432;2023-04-24T12:49:58;3.63;;;0.52;;
74074;SDS011;62428;51.412;5.432;2023-04-24T12:52:25;2.45;;;0.40;;
74074;SDS011;62428;51.412;5.432;2023-04-24T12:54:58;3.28;;;0.40;;
74074;SDS011;62428;51.412;5.432;2023-04-24T12:57:26;5.22;;;0.40;;
74074;SDS011;62428;51.412;5.432;2023-04-24T12:59:56;3.33;;;0.40;;
74074;SDS011;62428;51.412;5.432;2023-04-24T13:02:23;4.80;;;0.40;;
74074;SDS011;62428;51.412;5.432;2023-04-24T13:04:49;4.10;;;0.43;;
74074;SDS011;62428;51.412;5.432;2023-04-24T13:07:15;5.50;;;0.40;;
74074;SDS011;62428;51.412;5.432;2023-04-24T13:09:44;9.17;;;1.07;;
74074;SDS011;62428;51.412;5.432;2023-04-24T13:12:10;3.25;;;0.50;;
74074;SDS011;62428;51.412;5.432;2023-04-24T13:14:36;2.88;;;0.45;;
74074;SDS011;62428;51.412;5.432;2023-04-24T13:17:02;2.88;;;0.63;;
74074;SDS011;62428;51.412;5.432;2023-04-24T13:19:28;2.90;;;0.60;;
74074;SDS011;62428;51.412;5.432;2023-04-24T13:21:54;4.25;;;0.90;;
74074;SDS011;62428;51.412;5.432;2023-04-24T13:24:21;2.53;;;0.80;;
74074;SDS011;62428;51.412;5.432;2023-04-24T13:26:51;1.90;;;0.67;;
74074;SDS011;62428;51.412;5.432;2023-04-24T13:29:19;3.75;;;0.90;;
74074;SDS011;62428;51.412;5.432;2023-04-24T13:31:45;3.10;;;0.60;;
74074;SDS011;62428;51.412;5.432;2023-04-24T13:34:12;6.00;;;0.65;;
74074;SDS011;62428;51.412;5.432;2023-04-24T13:36:37;4.95;;;0.90;;
74074;SDS011;62428;51.412;5.432;2023-04-24T13:39:03;4.70;;;0.90;;
74074;SDS011;62428;51.412;5.432;2023-04-24T13:41:30;3.85;;;1.00;;
74074;SDS011;62428;51.412;5.432;2023-04-24T13:43:57;5.43;;;0.77;;
74074;SDS011;62428;51.412;5.432;2023-04-24T13:46:22;4.33;;;1.03;;
74074;SDS011;62428;51.412;5.432;2023-04-24T13:48:47;3.80;;;0.60;;
74074;SDS011;62428;51.412;5.432;2023-04-24T13:51:13;1.97;;;0.40;;
74074;SDS011;62428;51.412;5.432;2023-04-24T13:53:38;4.60;;;0.50;;
74074;SDS011;62428;51.412;5.432;2023-04-24T13:56:04;5.47;;;0.40;;
74074;SDS011;62428;51.412;5.432;2023-04-24T13:58:30;5.65;;;0.65;;
74074;SDS011;62428;51.412;5.432;2023-04-24T14:00:57;4.00;;;0.50;;
74074;SDS011;62428;51.412;5.432;2023-04-24T14:03:22;4.47;;;0.67;;
74074;SDS011;62428;51.412;5.432;2023-04-24T14:05:47;7.53;;;0.63;;
74074;SDS011;62428;51.412;5.432;2023-04-24T14:08:13;6.70;;;0.60;;
74074;SDS011;62428;51.412;5.432;2023-04-24T14:10:38;6.87;;;0.70;;
74074;SDS011;62428;51.412;5.432;2023-04-24T14:13:03;5.97;;;0.90;;
74074;SDS011;62428;51.412;5.432;2023-04-24T14:15:29;2.90;;;0.50;;
74074;SDS011;62428;51.412;5.432;2023-04-24T14:17:54;3.03;;;0.73;;
74074;SDS011;62428;51.412;5.432;2023-04-24T14:20:20;2.57;;;0.40;;
74074;SDS011;62428;51.412;5.432;2023-04-24T14:22:45;6.07;;;0.70;;
74074;SDS011;62428;51.412;5.432;2023-04-24T14:25:11;1.93;;;0.40;;
74074;SDS011;62428;51.412;5.432;2023-04-24T14:27:36;3.43;;;0.63;;
74074;SDS011;62428;51.412;5.432;2023-04-24T14:30:01;2.63;;;0.70;;
74074;SDS011;62428;51.412;5.432;2023-04-24T14:32:27;7.38;;;1.02;;
74074;SDS011;62428;51.412;5.432;2023-04-24T14:34:53;5.73;;;0.60;;
74074;SDS011;62428;51.412;5.432;2023-04-24T14:37:18;2.30;;;0.50;;
74074;SDS011;62428;51.412;5.432;2023-04-24T14:39:44;3.85;;;1.08;;
74074;SDS011;62428;51.412;5.432;2023-04-24T14:42:10;4.32;;;0.65;;
74074;SDS011;62428;51.412;5.432;2023-04-24T14:44:35;5.67;;;0.67;;
74074;SDS011;62428;51.412;5.432;2023-04-24T14:47:00;3.27;;;0.60;;
74074;SDS011;62428;51.412;5.432;2023-04-24T14:49:26;0.80;;;0.28;;